map of BRM home
BRM - Airport
Location
City:  Barquisimeto, Lara, Venezuela
Name:Jacinto Lara International Airport
ICAO:SVBM
IATA:BRM

Details
Type:Airport (Aerodrome, Airfield)
Use:Public/Civil, Military, International (customs port of entry)
Latitude:1002'34"N (10.042747)
Longitude:6921'31"W (-69.358618)
Datum:WGS 1984
Elevation:2042 ft (622 m)
Variation:11.01W (WMM2015 magnetic declination)
-0.11 annual change
Runways:1
Longest:9350 × 147 ft (2850 × 45 m), paved

Time
Time Zone:UTC-4
Local Time:

Weather
METAR:SVBM 161100Z 09002KT 9999 BKN016 23/21 Q1015

Related Locations
Nearby:
Farthest:JOG: 12274 mi / 19754 km
Yogyakarta [Adisucipto Intl (Jogja Airport)], YO, ID

Find:

   beyond  
but within

Other Information
Maps:
NOTAMs:
Links:
Sources:

  
  • flag of Venezuela
  

Sectional Chart

Flight Planning
at skyvector.com

Satellite Image

Google Maps Satellite view

 

Copyright © 2004-2018 Karl L. Swartz. All rights reserved.
The Great Circle Mapper name and logo are trademarks of the Great Circle Mapper.
All other trademarks mentioned herein belong to their respective owners.
Please see credits for attibutions and further copyright information.

  Follow gcmap on Facebook Follow gcmap on Twitter Follow gcmap on Google+ GCmap on LinkedIn

hCard Microformat

Geo Microformat